Time;durP1;ratioP1;P1;durP2;ratioP2;P2;SDS_P1;SDS_P2;PMS_P1;PMS_P2;Temp;Humidity;BMP_temperature;BMP_pressure;BME280_temperature;BME280_humidity;BME280_pressure;Samples;Min_cycle;Max_cycle;Signal;HPM_P1;HPM_P2
2021/07/04 00:00:00;;;;;;;2.50;0.93;;;;;;;;;;5019948;28;20033;-71
2021/07/04 00:02:27;;;;;;;1.20;0.43;;;;;;;;;;5039449;28;20100;-71
2021/07/04 00:04:54;;;;;;;1.48;0.20;;;;;;;;;;5061608;28;20307;-70
2021/07/04 00:07:21;;;;;;;1.33;0.20;;;;;;;;;;5053591;28;20031;-71
2021/07/04 00:09:49;;;;;;;3.50;0.60;;;;;;;;;;5053011;28;20463;-71
2021/07/04 00:12:16;;;;;;;2.17;0.20;;;;;;;;;;5036154;28;20044;-68
2021/07/04 00:14:43;;;;;;;1.83;0.30;;;;;;;;;;5026678;28;20029;-68
2021/07/04 00:17:10;;;;;;;1.50;0.20;;;;;;;;;;5058962;28;20021;-70
2021/07/04 00:19:37;;;;;;;1.42;0.43;;;;;;;;;;5050782;28;20228;-70
2021/07/04 00:22:07;;;;;;;0.90;0.20;;;;;;;;;;5057797;28;20108;-69
2021/07/04 00:24:34;;;;;;;1.83;0.28;;;;;;;;;;5052206;28;20021;-70
2021/07/04 00:27:02;;;;;;;0.98;0.30;;;;;;;;;;5050708;28;20516;-70
2021/07/04 00:29:29;;;;;;;1.90;0.43;;;;;;;;;;5052144;28;20549;-70
2021/07/04 00:31:56;;;;;;;1.95;1.05;;;;;;;;;;5066124;28;20063;-70
2021/07/04 00:34:23;;;;;;;0.82;0.20;;;;;;;;;;5054747;28;20489;-70
2021/07/04 00:36:50;;;;;;;2.75;0.40;;;;;;;;;;5062094;28;20085;-70
2021/07/04 00:39:17;;;;;;;3.90;0.50;;;;;;;;;;5051829;28;20029;-69
2021/07/04 00:41:44;;;;;;;0.98;0.32;;;;;;;;;;5035456;28;20037;-71
2021/07/04 00:44:11;;;;;;;1.95;0.43;;;;;;;;;;5050667;28;20580;-70
2021/07/04 00:46:38;;;;;;;2.85;0.30;;;;;;;;;;5050666;28;20025;-69
2021/07/04 00:49:06;;;;;;;0.88;0.40;;;;;;;;;;5053670;28;20025;-70
2021/07/04 00:51:33;;;;;;;0.75;0.13;;;;;;;;;;5054428;28;20028;-70
2021/07/04 00:54:01;;;;;;;2.33;0.20;;;;;;;;;;5024324;28;20033;-69
2021/07/04 00:56:28;;;;;;;3.47;0.40;;;;;;;;;;5048413;28;20028;-71
2021/07/04 00:58:55;;;;;;;1.70;0.40;;;;;;;;;;5050767;28;20044;-71
2021/07/04 01:01:22;;;;;;;2.83;0.52;;;;;;;;;;5037936;28;20185;-70
2021/07/04 01:03:49;;;;;;;0.50;0.20;;;;;;;;;;5024109;28;20033;-70
2021/07/04 01:06:16;;;;;;;1.58;0.20;;;;;;;;;;5060189;28;20021;-69
2021/07/04 01:08:44;;;;;;;3.13;0.30;;;;;;;;;;5036682;28;20056;-71
2021/07/04 01:11:11;;;;;;;0.98;0.22;;;;;;;;;;5050527;28;20388;-70
2021/07/04 01:13:38;;;;;;;1.90;0.22;;;;;;;;;;5061327;28;20025;-70
2021/07/04 01:16:05;;;;;;;7.95;0.75;;;;;;;;;;5057075;28;20031;-70
2021/07/04 01:18:32;;;;;;;4.07;0.63;;;;;;;;;;5047361;28;20028;-71
2021/07/04 01:21:02;;;;;;;1.25;0.30;;;;;;;;;;5047400;28;20037;-68
2021/07/04 01:23:30;;;;;;;1.45;0.55;;;;;;;;;;5058825;28;20024;-70
2021/07/04 01:25:57;;;;;;;0.70;0.28;;;;;;;;;;5048344;28;20112;-69
2021/07/04 01:28:24;;;;;;;2.78;0.30;;;;;;;;;;5046790;28;20037;-69
2021/07/04 01:30:53;;;;;;;1.92;0.25;;;;;;;;;;5045851;28;20033;-69
2021/07/04 01:33:21;;;;;;;1.98;0.30;;;;;;;;;;5036769;28;20151;-69
2021/07/04 01:35:48;;;;;;;0.95;0.30;;;;;;;;;;5041254;28;20042;-69
2021/07/04 01:38:15;;;;;;;1.88;0.43;;;;;;;;;;5030355;28;20064;-70
2021/07/04 01:40:43;;;;;;;1.30;0.32;;;;;;;;;;5045448;28;20109;-69
2021/07/04 01:43:10;;;;;;;1.00;0.20;;;;;;;;;;5048498;28;20036;-70
2021/07/04 01:45:38;;;;;;;1.38;0.30;;;;;;;;;;5041865;28;20390;-70
2021/07/04 01:48:05;;;;;;;1.33;0.38;;;;;;;;;;5040708;28;20079;-70
2021/07/04 01:50:34;;;;;;;2.58;0.25;;;;;;;;;;5056095;28;20028;-69
2021/07/04 01:53:01;;;;;;;0.95;0.30;;;;;;;;;;5054536;28;20017;-69
2021/07/04 01:55:28;;;;;;;0.90;0.40;;;;;;;;;;5047852;28;20025;-68
2021/07/04 01:57:56;;;;;;;2.60;1.20;;;;;;;;;;5049517;28;20025;-68
2021/07/04 02:00:31;;;;;;;1.58;0.28;;;;;;;;;;5039355;28;20086;-68
2021/07/04 02:02:57;;;;;;;;;;;;;;;;;;5042396;28;20096;-68
2021/07/04 02:05:25;;;;;;;2.15;0.32;;;;;;;;;;5029124;28;19915;-69
2021/07/04 02:07:52;;;;;;;4.22;0.50;;;;;;;;;;5041700;28;20117;-69
2021/07/04 02:10:21;;;;;;;1.80;0.50;;;;;;;;;;5046225;28;20021;-69
2021/07/04 02:12:48;;;;;;;5.53;1.50;;;;;;;;;;5047598;28;20044;-69
2021/07/04 02:15:23;;;;;;;2.53;1.27;;;;;;;;;;5038789;28;20022;-69
2021/07/04 02:17:50;;;;;;;4.53;3.13;;;;;;;;;;5045634;28;20037;-69
2021/07/04 02:20:20;;;;;;;2.08;0.75;;;;;;;;;;5037682;28;20101;-69
2021/07/04 02:22:47;;;;;;;2.38;0.80;;;;;;;;;;5042733;28;20025;-70
2021/07/04 02:25:14;;;;;;;4.22;1.45;;;;;;;;;;5044629;28;20373;-70
2021/07/04 02:27:42;;;;;;;14.95;4.65;;;;;;;;;;5042517;28;20017;-70
2021/07/04 02:30:09;;;;;;;8.18;1.50;;;;;;;;;;5043246;28;20032;-70
2021/07/04 02:32:36;;;;;;;4.68;1.10;;;;;;;;;;5060788;28;20057;-70
2021/07/04 02:35:07;;;;;;;3.08;1.55;;;;;;;;;;5046489;28;20517;-70
2021/07/04 02:37:34;;;;;;;1.63;0.50;;;;;;;;;;5060199;28;20022;-70
2021/07/04 02:40:01;;;;;;;1.67;0.40;;;;;;;;;;5052856;28;20090;-70
2021/07/04 02:42:28;;;;;;;2.28;1.00;;;;;;;;;;5045342;28;20182;-70
2021/07/04 02:44:56;;;;;;;2.55;0.40;;;;;;;;;;5067557;28;20076;-69
2021/07/04 02:47:23;;;;;;;1.88;0.40;;;;;;;;;;5068530;28;20020;-69
2021/07/04 02:49:50;;;;;;;2.80;0.93;;;;;;;;;;5063085;28;20035;-69
2021/07/04 02:52:17;;;;;;;2.67;0.90;;;;;;;;;;5056009;28;20032;-70
2021/07/04 02:54:44;;;;;;;2.25;0.50;;;;;;;;;;5056621;28;20052;-69
2021/07/04 02:57:12;;;;;;;1.58;0.40;;;;;;;;;;5056533;28;20493;-69
2021/07/04 02:59:39;;;;;;;1.42;0.47;;;;;;;;;;5056771;28;20021;-69
2021/07/04 03:02:06;;;;;;;1.77;0.52;;;;;;;;;;5059635;28;20029;-68
2021/07/04 03:04:33;;;;;;;1.83;0.47;;;;;;;;;;5063104;28;20350;-68
2021/07/04 03:07:00;;;;;;;3.05;0.80;;;;;;;;;;5051335;28;20028;-67
2021/07/04 03:09:28;;;;;;;1.95;0.47;;;;;;;;;;5056989;28;20024;-68
2021/07/04 03:11:58;;;;;;;2.70;0.63;;;;;;;;;;5055551;28;20037;-68
2021/07/04 03:14:25;;;;;;;2.05;0.40;;;;;;;;;;5049509;28;20131;-68
2021/07/04 03:16:52;;;;;;;1.73;0.60;;;;;;;;;;5056778;28;20021;-68
2021/07/04 03:19:20;;;;;;;2.65;0.80;;;;;;;;;;5053691;28;20075;-68
2021/07/04 03:21:47;;;;;;;1.35;0.38;;;;;;;;;;5046561;28;20050;-68
2021/07/04 03:24:14;;;;;;;1.83;0.45;;;;;;;;;;5047744;28;20030;-69
2021/07/04 03:26:42;;;;;;;1.95;0.68;;;;;;;;;;5044282;28;20028;-69
2021/07/04 03:29:09;;;;;;;4.63;0.30;;;;;;;;;;5044367;28;20101;-67
2021/07/04 03:31:36;;;;;;;2.95;0.50;;;;;;;;;;5047068;28;20021;-68
2021/07/04 03:34:04;;;;;;;2.10;1.05;;;;;;;;;;5048270;28;20049;-68
2021/07/04 03:36:31;;;;;;;2.28;0.73;;;;;;;;;;5047200;28;20536;-68
2021/07/04 03:38:58;;;;;;;1.60;0.50;;;;;;;;;;5029904;28;20029;-68
2021/07/04 03:41:25;;;;;;;0.52;0.30;;;;;;;;;;5042047;28;20029;-68
2021/07/04 03:43:52;;;;;;;2.83;0.98;;;;;;;;;;5046180;28;20024;-68
2021/07/04 03:46:20;;;;;;;0.65;0.20;;;;;;;;;;5048605;28;20017;-69
2021/07/04 03:48:47;;;;;;;2.15;0.50;;;;;;;;;;5042665;28;20434;-69
2021/07/04 03:51:14;;;;;;;2.40;0.28;;;;;;;;;;5050946;28;20024;-69
2021/07/04 03:53:41;;;;;;;2.00;0.50;;;;;;;;;;5035679;28;20036;-69
2021/07/04 03:56:08;;;;;;;2.45;0.68;;;;;;;;;;5033993;28;20493;-69
2021/07/04 03:58:35;;;;;;;0.80;0.20;;;;;;;;;;5049811;28;20021;-68
2021/07/04 04:01:03;;;;;;;2.28;0.40;;;;;;;;;;5030369;28;20035;-68
2021/07/04 04:03:30;;;;;;;1.65;0.35;;;;;;;;;;5034379;28;20025;-68
2021/07/04 04:05:57;;;;;;;0.57;0.22;;;;;;;;;;5028313;28;20516;-68
2021/07/04 04:08:25;;;;;;;2.25;0.40;;;;;;;;;;5051391;28;20444;-68
2021/07/04 04:10:52;;;;;;;0.70;0.20;;;;;;;;;;5049257;28;20029;-68
2021/07/04 04:13:19;;;;;;;1.35;0.22;;;;;;;;;;5019595;28;20381;-69
2021/07/04 04:15:46;;;;;;;0.77;0.35;;;;;;;;;;5037864;28;20018;-68
2021/07/04 04:18:14;;;;;;;2.13;0.30;;;;;;;;;;5038334;28;20036;-67
2021/07/04 04:20:42;;;;;;;1.02;0.43;;;;;;;;;;5042645;28;20441;-68
2021/07/04 04:23:09;;;;;;;1.60;0.22;;;;;;;;;;5041226;28;20021;-67
2021/07/04 04:25:36;;;;;;;2.30;0.70;;;;;;;;;;5047393;28;20541;-67
2021/07/04 04:28:04;;;;;;;2.13;0.45;;;;;;;;;;5051043;28;20033;-67
2021/07/04 04:30:35;;;;;;;0.90;0.50;;;;;;;;;;5052428;28;20025;-67
2021/07/04 04:33:02;;;;;;;1.42;0.40;;;;;;;;;;5039981;28;20033;-68
2021/07/04 04:35:29;;;;;;;1.52;0.30;;;;;;;;;;5042900;28;20052;-68
2021/07/04 04:37:56;;;;;;;1.45;0.40;;;;;;;;;;5046884;28;20083;-67
2021/07/04 04:40:26;;;;;;;2.30;0.20;;;;;;;;;;5043642;28;20398;-68
2021/07/04 04:42:54;;;;;;;1.77;0.30;;;;;;;;;;5056057;28;20487;-69
2021/07/04 04:45:21;;;;;;;2.67;0.20;;;;;;;;;;5041146;28;20029;-69
2021/07/04 04:47:48;;;;;;;2.00;0.30;;;;;;;;;;5050505;28;20453;-69
2021/07/04 04:50:16;;;;;;;1.58;0.30;;;;;;;;;;5065837;28;20059;-69
2021/07/04 04:52:43;;;;;;;0.98;0.20;;;;;;;;;;5052145;28;20102;-69
2021/07/04 04:55:11;;;;;;;1.80;0.50;;;;;;;;;;5052088;28;20017;-69
2021/07/04 04:57:38;;;;;;;1.52;0.38;;;;;;;;;;5056402;28;20029;-69
2021/07/04 05:00:07;;;;;;;1.65;0.40;;;;;;;;;;5059843;28;20013;-68
2021/07/04 05:02:34;;;;;;;0.77;0.30;;;;;;;;;;5036531;28;20083;-68
2021/07/04 05:05:02;;;;;;;1.00;0.20;;;;;;;;;;5052339;28;20029;-69
2021/07/04 05:07:30;;;;;;;1.52;0.40;;;;;;;;;;5053264;28;20819;-69
2021/07/04 05:09:57;;;;;;;1.90;0.30;;;;;;;;;;5056940;28;20025;-69
2021/07/04 05:12:24;;;;;;;1.10;0.10;;;;;;;;;;5019937;28;20039;-68
2021/07/04 05:14:53;;;;;;;0.93;0.20;;;;;;;;;;5053248;28;20033;-69
2021/07/04 05:17:21;;;;;;;1.95;0.25;;;;;;;;;;5051881;28;20425;-69
2021/07/04 05:19:48;;;;;;;2.75;0.20;;;;;;;;;;5053495;28;20043;-68
2021/07/04 05:22:16;;;;;;;3.13;0.30;;;;;;;;;;5042501;28;20625;-69
2021/07/04 05:24:43;;;;;;;1.27;0.32;;;;;;;;;;5042817;28;20025;-70
2021/07/04 05:27:10;;;;;;;1.63;0.52;;;;;;;;;;5044569;28;20063;-69
2021/07/04 05:29:37;;;;;;;1.88;0.32;;;;;;;;;;5039698;28;20467;-69
2021/07/04 05:32:04;;;;;;;2.55;0.30;;;;;;;;;;5051140;28;20405;-70
2021/07/04 05:34:31;;;;;;;1.65;0.47;;;;;;;;;;5038449;28;20383;-69
2021/07/04 05:36:59;;;;;;;1.23;0.30;;;;;;;;;;5051659;28;20497;-69
2021/07/04 05:39:27;;;;;;;0.80;0.30;;;;;;;;;;5037106;28;20083;-69
2021/07/04 05:41:54;;;;;;;6.07;0.65;;;;;;;;;;5052807;28;20029;-68
2021/07/04 05:44:21;;;;;;;2.80;0.30;;;;;;;;;;5064445;28;20394;-69
2021/07/04 05:46:49;;;;;;;2.47;0.60;;;;;;;;;;5047293;28;20104;-68
2021/07/04 05:49:17;;;;;;;2.78;0.70;;;;;;;;;;5055079;28;20086;-67
2021/07/04 05:51:44;;;;;;;1.85;0.43;;;;;;;;;;5053878;28;20485;-68
2021/07/04 05:54:11;;;;;;;1.35;0.70;;;;;;;;;;5046385;28;20021;-68
2021/07/04 05:56:39;;;;;;;1.98;0.80;;;;;;;;;;5051527;28;20035;-69
2021/07/04 05:59:06;;;;;;;3.38;0.45;;;;;;;;;;5047932;28;20555;-68
2021/07/04 06:01:34;;;;;;;1.30;0.40;;;;;;;;;;5053235;28;20019;-67
2021/07/04 06:04:01;;;;;;;1.83;0.50;;;;;;;;;;5048902;28;20123;-68
2021/07/04 06:06:28;;;;;;;1.33;0.30;;;;;;;;;;5051616;28;20470;-68
2021/07/04 06:08:56;;;;;;;1.45;0.43;;;;;;;;;;5048863;28;20032;-68
2021/07/04 06:11:23;;;;;;;3.00;0.40;;;;;;;;;;5041545;28;20112;-67
2021/07/04 06:13:50;;;;;;;2.08;0.98;;;;;;;;;;5046648;28;20029;-69
2021/07/04 06:16:17;;;;;;;1.13;0.40;;;;;;;;;;5047064;28;20047;-69
2021/07/04 06:18:44;;;;;;;3.22;0.50;;;;;;;;;;5052854;28;20464;-68
2021/07/04 06:21:11;;;;;;;1.50;0.43;;;;;;;;;;5048934;28;20025;-69
2021/07/04 06:23:39;;;;;;;1.40;0.70;;;;;;;;;;5054686;28;20021;-68
2021/07/04 06:26:06;;;;;;;2.70;0.57;;;;;;;;;;5051692;28;20017;-69
2021/07/04 06:28:33;;;;;;;1.60;0.57;;;;;;;;;;5050102;28;20759;-68
2021/07/04 06:31:00;;;;;;;2.15;0.80;;;;;;;;;;5051995;28;20112;-68
2021/07/04 06:33:27;;;;;;;2.67;0.70;;;;;;;;;;5045490;28;20021;-68
2021/07/04 06:35:54;;;;;;;3.97;0.70;;;;;;;;;;5054335;28;20021;-69
2021/07/04 06:38:21;;;;;;;2.28;0.70;;;;;;;;;;5054112;28;20040;-68
2021/07/04 06:40:49;;;;;;;2.33;0.50;;;;;;;;;;5055331;28;20024;-69
2021/07/04 06:43:16;;;;;;;1.00;0.43;;;;;;;;;;5064193;28;20065;-68
2021/07/04 06:45:43;;;;;;;2.95;0.50;;;;;;;;;;5051413;28;20035;-68
2021/07/04 06:48:10;;;;;;;0.88;0.30;;;;;;;;;;5057294;28;20130;-69
2021/07/04 06:50:37;;;;;;;2.25;1.00;;;;;;;;;;5050582;28;20409;-68
2021/07/04 06:53:04;;;;;;;2.40;0.90;;;;;;;;;;5045772;28;20070;-69
2021/07/04 06:55:31;;;;;;;2.22;0.60;;;;;;;;;;5062364;28;20495;-68
2021/07/04 06:57:58;;;;;;;2.97;0.80;;;;;;;;;;5053721;28;20036;-67
2021/07/04 07:00:27;;;;;;;1.83;0.63;;;;;;;;;;5050941;28;20390;-68
2021/07/04 07:02:54;;;;;;;3.97;0.82;;;;;;;;;;5031649;28;20025;-68
2021/07/04 07:05:21;;;;;;;3.25;0.70;;;;;;;;;;5049863;28;20035;-68
2021/07/04 07:07:48;;;;;;;1.23;0.65;;;;;;;;;;5051464;28;20026;-68
2021/07/04 07:10:16;;;;;;;5.30;0.80;;;;;;;;;;5050741;28;20031;-68
2021/07/04 07:12:43;;;;;;;2.30;0.95;;;;;;;;;;5056720;28;20029;-68
2021/07/04 07:15:11;;;;;;;4.68;0.95;;;;;;;;;;5049439;28;20025;-68
2021/07/04 07:17:39;;;;;;;2.35;0.80;;;;;;;;;;5021768;28;20044;-68
2021/07/04 07:20:07;;;;;;;2.22;0.70;;;;;;;;;;5060026;28;20052;-69
2021/07/04 07:22:34;;;;;;;2.90;0.88;;;;;;;;;;5048826;28;20040;-68
2021/07/04 07:25:01;;;;;;;3.67;1.30;;;;;;;;;;5036298;28;20504;-68
2021/07/04 07:27:28;;;;;;;3.85;1.25;;;;;;;;;;5034598;28;20034;-68
2021/07/04 07:29:55;;;;;;;4.22;1.77;;;;;;;;;;5057360;28;20017;-68
2021/07/04 07:32:22;;;;;;;2.75;1.30;;;;;;;;;;5048680;28;20025;-67
2021/07/04 07:34:50;;;;;;;4.43;1.42;;;;;;;;;;5052010;28;20394;-67
2021/07/04 07:37:18;;;;;;;4.15;1.10;;;;;;;;;;5046945;28;20033;-67
2021/07/04 07:39:45;;;;;;;5.30;1.52;;;;;;;;;;5042893;28;20036;-67
2021/07/04 07:42:14;;;;;;;2.88;1.05;;;;;;;;;;5050456;28;20043;-67
2021/07/04 07:44:41;;;;;;;3.55;1.33;;;;;;;;;;5052608;28;20052;-68
2021/07/04 07:47:09;;;;;;;3.08;1.38;;;;;;;;;;5032300;28;20456;-67
2021/07/04 07:49:36;;;;;;;5.68;2.60;;;;;;;;;;5055771;28;20025;-68
2021/07/04 07:52:04;;;;;;;8.70;3.35;;;;;;;;;;5050354;28;20096;-68
2021/07/04 07:54:31;;;;;;;8.88;3.90;;;;;;;;;;5016544;28;20025;-67
2021/07/04 07:57:01;;;;;;;6.93;3.17;;;;;;;;;;5019155;28;20032;-68
2021/07/04 07:59:30;;;;;;;8.27;3.50;;;;;;;;;;5048859;28;20074;-68
2021/07/04 08:01:57;;;;;;;5.85;3.47;;;;;;;;;;5060529;28;20025;-67
2021/07/04 08:04:25;;;;;;;6.57;3.42;;;;;;;;;;5055955;28;20069;-68
2021/07/04 08:06:52;;;;;;;6.45;3.65;;;;;;;;;;5039326;28;20507;-68
2021/07/04 08:09:19;;;;;;;6.63;3.53;;;;;;;;;;5034518;28;20501;-68
2021/07/04 08:11:46;;;;;;;6.68;3.13;;;;;;;;;;5059452;28;20016;-68
2021/07/04 08:14:13;;;;;;;15.05;5.18;;;;;;;;;;5047630;28;20096;-68
2021/07/04 08:16:41;;;;;;;6.97;2.97;;;;;;;;;;5058803;28;20017;-68
2021/07/04 08:19:08;;;;;;;5.63;3.10;;;;;;;;;;5034650;28;20049;-68
2021/07/04 08:21:35;;;;;;;4.47;1.85;;;;;;;;;;5036901;28;20014;-68
2021/07/04 08:24:02;;;;;;;3.50;2.47;;;;;;;;;;5060001;28;20032;-67
2021/07/04 08:26:30;;;;;;;4.38;2.22;;;;;;;;;;5064284;28;20102;-68
2021/07/04 08:28:57;;;;;;;4.97;3.20;;;;;;;;;;5053204;28;20033;-68
2021/07/04 08:31:25;;;;;;;6.20;3.40;;;;;;;;;;5048887;28;20428;-68
2021/07/04 08:33:52;;;;;;;6.63;3.92;;;;;;;;;;5067233;28;20471;-68
2021/07/04 08:36:19;;;;;;;5.88;3.38;;;;;;;;;;5047222;28;20021;-68
2021/07/04 08:38:47;;;;;;;8.00;3.60;;;;;;;;;;5062398;28;20040;-68
2021/07/04 08:41:15;;;;;;;7.05;3.92;;;;;;;;;;5053526;28;20389;-68
2021/07/04 08:43:42;;;;;;;5.18;3.55;;;;;;;;;;5057215;28;20028;-69
2021/07/04 08:46:10;;;;;;;6.57;4.63;;;;;;;;;;5052628;28;20017;-69
2021/07/04 08:48:38;;;;;;;11.23;6.10;;;;;;;;;;5065929;28;20074;-69
2021/07/04 08:51:06;;;;;;;10.27;5.95;;;;;;;;;;5053549;28;20020;-68
2021/07/04 08:53:33;;;;;;;9.27;5.90;;;;;;;;;;5037553;28;20469;-69
2021/07/04 08:56:00;;;;;;;9.45;5.40;;;;;;;;;;5054962;28;20138;-68
2021/07/04 08:58:29;;;;;;;9.05;5.55;;;;;;;;;;5038179;28;20039;-68
2021/07/04 09:01:28;;;;;;;7.40;4.78;;;;;;;;;;5045396;28;20045;-68
2021/07/04 09:04:12;;;;;;;12.32;6.57;;;;;;;;;;4990731;28;20057;-68
2021/07/04 09:06:59;;;;;;;11.38;5.53;;;;;;;;;;5043663;28;20067;-68
2021/07/04 09:09:28;;;;;;;7.68;4.60;;;;;;;;;;5041849;28;20025;-68
2021/07/04 09:12:03;;;;;;;8.77;5.28;;;;;;;;;;5062261;28;20020;-68
2021/07/04 09:14:34;;;;;;;7.75;5.43;;;;;;;;;;5043435;28;20025;-68
2021/07/04 09:17:01;;;;;;;7.82;5.00;;;;;;;;;;5047579;28;20025;-68
2021/07/04 09:19:28;;;;;;;7.40;4.55;;;;;;;;;;5052258;28;20477;-69
2021/07/04 09:22:13;;;;;;;7.05;4.18;;;;;;;;;;5042358;28;20064;-69
2021/07/04 09:24:43;;;;;;;;;;;;;;;;;;5033686;28;20030;-68
2021/07/04 09:27:15;;;;;;;6.85;3.80;;;;;;;;;;5031181;28;19905;-72
2021/07/04 09:29:43;;;;;;;5.75;3.22;;;;;;;;;;5037785;28;20036;-70
2021/07/04 09:32:28;;;;;;;6.03;3.05;;;;;;;;;;5033208;28;20013;-70
2021/07/04 09:35:02;;;;;;;6.80;3.58;;;;;;;;;;5046931;28;20053;-69
2021/07/04 09:37:33;;;;;;;9.18;3.33;;;;;;;;;;5046091;28;20033;-71
2021/07/04 09:40:13;;;;;;;5.70;3.35;;;;;;;;;;5047408;28;20498;-68
2021/07/04 09:43:00;;;;;;;7.63;3.72;;;;;;;;;;5038358;28;20027;-69
2021/07/04 09:45:47;;;;;;;5.57;3.33;;;;;;;;;;5052105;28;20384;-68
2021/07/04 09:48:16;;;;;;;6.13;4.00;;;;;;;;;;5038975;28;20045;-68
2021/07/04 09:50:45;;;;;;;4.82;3.10;;;;;;;;;;5015266;28;20030;-68
2021/07/04 09:53:14;;;;;;;5.80;3.45;;;;;;;;;;5051449;28;20479;-68
2021/07/04 09:55:42;;;;;;;8.82;4.80;;;;;;;;;;5054437;28;20021;-68
2021/07/04 09:58:11;;;;;;;9.18;4.82;;;;;;;;;;5064282;28;20032;-68
2021/07/04 10:00:39;;;;;;;8.77;5.50;;;;;;;;;;5054507;28;20045;-68
2021/07/04 10:03:12;;;;;;;10.15;5.40;;;;;;;;;;5054827;28;20740;-68
2021/07/04 10:05:41;;;;;;;10.18;5.90;;;;;;;;;;5059663;28;20017;-68
2021/07/04 10:08:37;;;;;;;9.85;5.85;;;;;;;;;;5033229;28;20013;-69
2021/07/04 10:11:04;;;;;;;13.57;7.13;;;;;;;;;;5042056;28;20041;-68
2021/07/04 10:13:32;;;;;;;9.32;5.80;;;;;;;;;;5052160;28;20029;-68
2021/07/04 10:16:01;;;;;;;11.23;6.57;;;;;;;;;;5036603;28;20025;-68
2021/07/04 10:18:28;;;;;;;9.82;6.32;;;;;;;;;;5045945;28;20029;-68
2021/07/04 10:20:56;;;;;;;12.15;7.53;;;;;;;;;;5054951;28;20115;-67
2021/07/04 10:23:24;;;;;;;11.15;7.60;;;;;;;;;;5023888;28;20044;-68
2021/07/04 10:25:52;;;;;;;12.02;7.25;;;;;;;;;;5046208;28;20052;-66
2021/07/04 10:28:38;;;;;;;14.27;8.68;;;;;;;;;;5041493;28;20034;-68
2021/07/04 10:31:08;;;;;;;12.05;7.78;;;;;;;;;;5043486;28;20048;-67
2021/07/04 10:33:36;;;;;;;11.80;6.40;;;;;;;;;;5022228;28;20051;-67
2021/07/04 10:36:10;;;;;;;13.48;6.22;;;;;;;;;;5052909;28;20116;-67
2021/07/04 10:38:42;;;;;;;10.20;6.07;;;;;;;;;;5033130;28;20041;-67
2021/07/04 10:41:10;;;;;;;11.23;6.85;;;;;;;;;;5054651;28;20021;-67
2021/07/04 10:43:56;;;;;;;8.48;5.65;;;;;;;;;;5045867;28;20028;-67
2021/07/04 10:46:43;;;;;;;9.77;5.55;;;;;;;;;;5025195;28;20041;-67
2021/07/04 10:49:14;;;;;;;8.55;5.00;;;;;;;;;;5040971;28;20027;-67
2021/07/04 10:52:00;;;;;;;9.70;5.45;;;;;;;;;;5034954;28;20026;-68
2021/07/04 10:54:46;;;;;;;7.88;4.85;;;;;;;;;;5016746;28;20084;-68
2021/07/04 10:57:21;;;;;;;10.10;4.68;;;;;;;;;;5021095;28;20055;-68
2021/07/04 10:59:52;;;;;;;6.50;4.07;;;;;;;;;;5022301;28;20048;-68
2021/07/04 11:02:38;;;;;;;8.60;4.03;;;;;;;;;;5040767;28;20036;-68
2021/07/04 11:05:12;;;;;;;7.30;3.70;;;;;;;;;;5036193;28;20072;-68
2021/07/04 11:07:54;;;;;;;7.13;3.72;;;;;;;;;;5029880;28;20041;-68
2021/07/04 11:10:26;;;;;;;5.70;3.33;;;;;;;;;;5037829;28;20021;-67
2021/07/04 11:12:54;;;;;;;7.20;3.58;;;;;;;;;;5047763;28;20035;-68
2021/07/04 11:15:21;;;;;;;4.97;2.90;;;;;;;;;;5050400;28;20052;-68
2021/07/04 11:17:58;;;;;;;6.00;3.35;;;;;;;;;;5022673;28;20036;-68
2021/07/04 11:20:26;;;;;;;5.07;2.80;;;;;;;;;;5034181;28;20037;-67
2021/07/04 11:22:56;;;;;;;3.50;2.63;;;;;;;;;;5034297;28;20079;-67
2021/07/04 11:25:24;;;;;;;4.88;2.80;;;;;;;;;;5053563;28;20017;-68
2021/07/04 11:28:09;;;;;;;5.28;2.72;;;;;;;;;;5031663;28;20120;-67
2021/07/04 11:30:36;;;;;;;6.15;2.65;;;;;;;;;;5043829;28;20049;-67
2021/07/04 11:33:25;;;;;;;4.45;2.08;;;;;;;;;;5046104;28;20045;-68
2021/07/04 11:35:53;;;;;;;3.80;2.63;;;;;;;;;;5047492;28;20045;-68
2021/07/04 11:38:24;;;;;;;6.05;2.42;;;;;;;;;;5051154;28;20036;-68
2021/07/04 11:40:51;;;;;;;5.53;2.22;;;;;;;;;;5054436;28;20381;-68
2021/07/04 11:43:20;;;;;;;7.40;2.50;;;;;;;;;;5043574;28;20025;-68
2021/07/04 11:45:48;;;;;;;6.20;1.90;;;;;;;;;;5039890;28;20036;-68
2021/07/04 11:48:16;;;;;;;6.43;2.42;;;;;;;;;;5055904;28;20396;-67
2021/07/04 11:50:47;;;;;;;3.78;1.77;;;;;;;;;;5039883;28;20032;-67
2021/07/04 11:53:14;;;;;;;4.65;1.95;;;;;;;;;;5059511;28;20025;-67
2021/07/04 11:55:58;;;;;;;4.85;2.08;;;;;;;;;;5037395;28;20118;-67
2021/07/04 11:58:29;;;;;;;4.70;2.40;;;;;;;;;;5023923;28;20034;-67
2021/07/04 12:00:57;;;;;;;5.82;2.25;;;;;;;;;;5063263;28;20025;-67
2021/07/04 12:03:25;;;;;;;4.22;2.10;;;;;;;;;;5064285;28;20548;-67
2021/07/04 12:05:53;;;;;;;12.73;2.42;;;;;;;;;;5065076;28;20036;-67
2021/07/04 12:08:20;;;;;;;4.07;2.33;;;;;;;;;;5058522;28;20041;-68
2021/07/04 12:10:48;;;;;;;3.10;1.88;;;;;;;;;;5059517;28;20016;-68
2021/07/04 12:13:15;;;;;;;4.53;2.13;;;;;;;;;;5056331;28;20013;-68
2021/07/04 12:15:48;;;;;;;6.60;2.05;;;;;;;;;;5051059;28;20020;-68
2021/07/04 12:18:17;;;;;;;4.03;2.38;;;;;;;;;;5048041;28;20025;-68
2021/07/04 12:20:44;;;;;;;2.80;1.52;;;;;;;;;;5030981;28;20029;-69
2021/07/04 12:23:13;;;;;;;3.33;1.70;;;;;;;;;;5041869;28;20058;-69
2021/07/04 12:25:43;;;;;;;4.28;1.92;;;;;;;;;;5064351;28;20020;-68
2021/07/04 12:28:11;;;;;;;4.65;2.33;;;;;;;;;;5058977;28;20029;-67
2021/07/04 12:30:44;;;;;;;6.63;4.05;;;;;;;;;;5046473;28;20024;-68
2021/07/04 12:33:11;;;;;;;2.85;2.00;;;;;;;;;;5051322;28;20481;-68
2021/07/04 12:35:40;;;;;;;4.28;1.85;;;;;;;;;;5056263;28;20072;-68
2021/07/04 12:38:13;;;;;;;4.25;1.63;;;;;;;;;;5051389;28;20331;-68
2021/07/04 12:40:54;;;;;;;3.55;1.60;;;;;;;;;;5059245;28;20070;-68
2021/07/04 12:43:33;;;;;;;6.47;1.88;;;;;;;;;;5060889;28;20024;-67
2021/07/04 12:46:01;;;;;;;3.83;1.70;;;;;;;;;;5045246;28;20131;-68
2021/07/04 12:48:30;;;;;;;3.88;1.67;;;;;;;;;;5047431;28;20025;-67
2021/07/04 12:51:02;;;;;;;7.78;3.63;;;;;;;;;;5059234;28;20350;-69
2021/07/04 12:53:43;;;;;;;7.43;2.63;;;;;;;;;;5037624;28;20035;-67
2021/07/04 12:56:20;;;;;;;3.97;1.63;;;;;;;;;;5065128;28;20035;-67
2021/07/04 12:59:00;;;;;;;4.65;1.73;;;;;;;;;;5052273;28;20071;-68
2021/07/04 13:01:30;;;;;;;3.25;1.33;;;;;;;;;;5046314;28;20496;-68
2021/07/04 13:04:00;;;;;;;3.85;1.58;;;;;;;;;;5054024;28;20366;-68
2021/07/04 13:06:35;;;;;;;6.68;2.03;;;;;;;;;;5056517;28;20473;-68
2021/07/04 13:09:04;;;;;;;5.03;2.17;;;;;;;;;;5035700;28;20072;-68
2021/07/04 13:11:32;;;;;;;5.47;2.17;;;;;;;;;;5050540;28;20021;-68
2021/07/04 13:14:01;;;;;;;4.10;2.03;;;;;;;;;;5050772;28;20048;-67
2021/07/04 13:16:29;;;;;;;5.78;1.65;;;;;;;;;;5054524;28;20031;-68
2021/07/04 13:18:56;;;;;;;3.80;1.75;;;;;;;;;;5056727;28;20037;-68
2021/07/04 13:21:36;;;;;;;8.30;4.00;;;;;;;;;;5059819;28;20032;-67
2021/07/04 13:24:17;;;;;;;4.25;2.28;;;;;;;;;;5048280;28;20039;-67
2021/07/04 13:26:45;;;;;;;3.08;1.90;;;;;;;;;;5065804;28;20515;-68
2021/07/04 13:29:21;;;;;;;4.25;2.42;;;;;;;;;;5046477;28;20050;-67
2021/07/04 13:32:07;;;;;;;3.28;1.67;;;;;;;;;;5067307;28;20027;-68
2021/07/04 13:34:35;;;;;;;4.07;1.80;;;;;;;;;;5065942;28;20833;-67
2021/07/04 13:37:02;;;;;;;4.82;2.05;;;;;;;;;;5054920;28;20528;-68
2021/07/04 13:39:29;;;;;;;5.70;2.35;;;;;;;;;;5062820;28;20031;-68
2021/07/04 13:41:56;;;;;;;3.30;1.65;;;;;;;;;;5056316;28;20029;-68
2021/07/04 13:44:23;;;;;;;4.18;1.85;;;;;;;;;;5040050;28;20420;-67
2021/07/04 13:46:50;;;;;;;2.65;1.60;;;;;;;;;;5043360;28;20021;-68
2021/07/04 13:49:18;;;;;;;2.60;1.67;;;;;;;;;;5060887;28;20029;-68
2021/07/04 13:51:45;;;;;;;5.05;2.03;;;;;;;;;;5067847;28;20097;-68
2021/07/04 13:54:12;;;;;;;3.20;1.98;;;;;;;;;;5059757;28;20021;-68
2021/07/04 13:56:40;;;;;;;3.35;1.90;;;;;;;;;;5056838;28;20024;-68
2021/07/04 13:59:07;;;;;;;5.60;1.92;;;;;;;;;;5058241;28;20036;-67
2021/07/04 14:01:34;;;;;;;5.28;1.70;;;;;;;;;;5055027;28;20024;-68
2021/07/04 14:04:01;;;;;;;5.55;1.85;;;;;;;;;;5048680;28;20033;-67
2021/07/04 14:06:28;;;;;;;4.22;2.28;;;;;;;;;;5056800;28;20017;-68
2021/07/04 14:08:55;;;;;;;5.10;2.10;;;;;;;;;;5055052;28;20333;-68
2021/07/04 14:11:22;;;;;;;6.55;1.90;;;;;;;;;;5069485;28;20016;-67
2021/07/04 14:13:49;;;;;;;4.85;2.03;;;;;;;;;;5051675;28;20029;-67
2021/07/04 14:16:16;;;;;;;4.70;2.40;;;;;;;;;;5060814;28;20074;-67
2021/07/04 14:18:44;;;;;;;4.18;1.83;;;;;;;;;;5057133;28;20119;-67
2021/07/04 14:21:11;;;;;;;2.47;1.42;;;;;;;;;;5043902;28;20029;-67
2021/07/04 14:23:39;;;;;;;5.65;1.38;;;;;;;;;;5062683;28;20025;-67
2021/07/04 14:26:07;;;;;;;5.15;1.27;;;;;;;;;;5050124;28;20029;-67
2021/07/04 14:28:34;;;;;;;2.72;1.25;;;;;;;;;;5061689;28;20025;-67
2021/07/04 14:31:01;;;;;;;3.47;1.60;;;;;;;;;;5068405;28;20070;-67
2021/07/04 14:33:28;;;;;;;3.85;1.60;;;;;;;;;;5053363;28;20094;-67
2021/07/04 14:35:56;;;;;;;2.67;1.30;;;;;;;;;;5055037;28;20031;-67
2021/07/04 14:38:23;;;;;;;4.55;1.35;;;;;;;;;;5068597;28;20025;-67
2021/07/04 14:40:50;;;;;;;4.25;1.13;;;;;;;;;;5053794;28;20102;-67
2021/07/04 14:43:17;;;;;;;2.63;1.10;;;;;;;;;;5060282;28;20466;-67
2021/07/04 14:45:44;;;;;;;6.43;1.38;;;;;;;;;;5041590;28;20037;-68
2021/07/04 14:48:12;;;;;;;3.30;1.00;;;;;;;;;;5066867;28;20059;-67
2021/07/04 14:50:40;;;;;;;4.53;1.45;;;;;;;;;;5063379;28;20370;-67
2021/07/04 14:53:10;;;;;;;4.60;1.30;;;;;;;;;;5062381;28;20528;-67